Time Latitude Longitude Accuracy (66% radius in meters) Altitude (meters) Speed (km/hour) Bearing (degrees) Battery (%) GPS flag
07:45:34 57.210074 60.117414 13.65299987793 299 1.5299999713898 187.39999389648 85 1 delete
07:45:33 57.210099 60.117423 13.65299987793 299 2.8199999332428 180.10000610352 85 1 delete
07:45:28 57.210186 60.117508 15.170000076294 296 1.8700000047684 223.39999389648 85 1 delete
07:45:24 57.210270 60.117645 15.170000076294 299 1.9199999570847 199.30000305176 85 1 delete
07:45:23 57.210291 60.117669 15.170000076294 298 0.55000001192093 205.30000305176 85 1 delete
07:45:18 57.210352 60.117750 15.170000076294 294 3.4000000953674 194.39999389648 85 1 delete
07:45:14 57.210442 60.117862 16.687000274658 297 3.3099999427795 188.80000305176 85 1 delete
07:45:13 57.210497 60.117851 15.170000076294 298 2.8699998855591 182 85 1 delete
07:45:10 57.210571 60.117903 16.687000274658 293 2.9300000667572 202.30000305176 85 1 delete
07:45:07 57.210661 60.118037 15.170000076294 290 3.5699999332428 225.60000610352 85 1 delete
07:45:03 57.210794 60.118321 15.170000076294 293 3.4000000953674 217.80000305176 85 1 delete
07:45:02 57.210822 60.118360 15.170000076294 293 3.0099999904633 214.39999389648 85 1 delete
07:45:00 57.210877 60.118420 15.170000076294 293 2.2400000095367 215.5 85 1 delete
07:44:55 57.210980 60.118501 15.170000076294 292 0 0 85 1 delete
07:44:51 57.211061 60.118564 15.170000076294 291 1.2599999904633 137.80000305176 85 1 delete
07:44:50 57.211078 60.118550 15.170000076294 290 1.1799999475479 100.19999694824 85 1 delete
07:44:41 57.211169 60.118484 13.65299987793 288 1.6599999666214 207.10000610352 85 1 delete
07:44:40 57.211187 60.118507 15.170000076294 288 1.0299999713898 206.30000305176 85 1 delete
07:44:37 57.211258 60.118576 15.170000076294 288 1.8899999856949 196.10000610352 85 1 delete
07:44:34 57.211334 60.118666 15.170000076294 287 3.5 234 85 1 delete
07:44:29 57.211392 60.118850 15.170000076294 285 1.6200000047684 205.39999389648 85 1 delete
07:44:23 57.211490 60.118918 15.170000076294 286 1.6699999570847 203.69999694824 85 1 delete
07:44:18 57.211563 60.118978 13.65299987793 285 0.5 159.30000305176 89 1 delete
07:44:15 57.211596 60.118960 13.65299987793 284 0.87999999523163 131.89999389648 89 1 delete
07:44:10 57.211671 60.118864 13.65299987793 282 1.5499999523163 150.19999694824 89 1 delete
07:44:07 57.211705 60.118805 13.65299987793 281 1.3400000333786 117.59999847412 89 1 delete
07:44:04 57.211738 60.118741 13.65299987793 282 1.5299999713898 157.89999389648 89 1 delete
07:43:57 57.211830 60.118635 13.65299987793 282 1.539999961853 123.59999847412 89 1 delete
07:43:56 57.211842 60.118606 13.65299987793 282 1.2699999809265 122.09999847412 89 1 delete
07:43:51 57.211882 60.118468 13.65299987793 281 1.3600000143051 129.5 89 1 delete
07:43:45 57.211915 60.118298 15.170000076294 281 2.25 110.19999694824 89 1 delete
07:43:40 57.211957 60.118115 15.170000076294 280 1.9700000286102 122.80000305176 89 1 delete
07:43:36 57.212013 60.117953 15.170000076294 280 2.4800000190735 123.80000305176 89 1 delete
07:43:34 57.212033 60.117893 15.170000076294 279 0.69999998807907 109.69999694824 89 1 delete
07:43:30 57.212065 60.117768 13.65299987793 279 2.1800000667572 124.90000152588 89 1 delete
07:43:25 57.212139 60.117673 13.65299987793 279 2.1099998950958 131.19999694824 89 1 delete
07:43:23 57.212180 60.117632 13.65299987793 278 2.289999961853 128.5 89 1 delete
07:43:20 57.212222 60.117546 13.65299987793 278 2.0699999332428 121.69999694824 89 1 delete
07:43:12 57.212257 60.117462 13.65299987793 277 0 0 89 1 delete
07:43:06 57.212296 60.117429 13.65299987793 277 1.2699999809265 121.90000152588 89 1 delete
07:43:02 57.212337 60.117343 13.65299987793 278 1.3099999427795 153.5 89 1 delete
07:43:00 57.212372 60.117313 13.65299987793 278 1.789999961853 158.80000305176 89 1 delete
07:42:54 57.212447 60.117219 13.65299987793 278 1.25 145.69999694824 89 1 delete
07:42:51 57.212505 60.117152 15.170000076294 278 2.8599998950958 130.80000305176 89 1 delete
07:42:50 57.212525 60.117114 15.170000076294 278 2.1800000667572 122.90000152588 89 1 delete
07:42:44 57.212599 60.116975 15.170000076294 278 0.54000002145767 172.30000305176 89 1 delete
07:42:40 57.212625 60.117024 15.170000076294 275 0 0 89 1 delete
07:42:36 57.212658 60.117102 15.170000076294 273 1.6000000238419 170.5 89 1 delete
07:42:32 57.212749 60.117074 15.170000076294 279 3.2999999523163 206.60000610352 89 1 delete
07:42:29 57.212819 60.117231 13.65299987793 279 3.75 261.10000610352 89 1 delete